createdAt,value
2022-11-04T00:04:29.259Z,7.80
2022-11-04T00:09:31.389Z,9.98
2022-11-04T00:14:34.920Z,7.05
2022-11-04T00:19:38.411Z,7.47
2022-11-04T00:24:40.625Z,6.72
2022-11-04T00:29:42.752Z,7.05
2022-11-04T00:34:46.347Z,8.18
2022-11-04T00:39:48.441Z,6.95
2022-11-04T00:44:50.595Z,8.18
2022-11-04T00:49:54.481Z,8.02
2022-11-04T00:54:56.561Z,6.28
2022-11-04T00:59:58.676Z,8.15
2022-11-04T01:05:02.217Z,7.30
2022-11-04T01:10:04.982Z,7.30
2022-11-04T01:15:07.805Z,6.40
2022-11-04T01:20:12.260Z,7.45
2022-11-04T01:25:14.596Z,9.45
2022-11-04T01:30:16.837Z,8.80
2022-11-04T01:35:20.341Z,9.82
2022-11-04T01:40:22.487Z,6.60
2022-11-04T01:45:24.596Z,8.52
2022-11-04T01:50:30.832Z,6.97
2022-11-04T01:55:35.753Z,10.52
2022-11-04T02:00:39.495Z,8.13
2022-11-04T02:05:44.094Z,6.70
2022-11-04T02:10:51.589Z,5.75
2022-11-04T02:15:58.805Z,6.05
2022-11-04T02:21:27.440Z,6.13
2022-11-04T02:27:07.140Z,3.35
2022-11-04T02:32:18.620Z,3.28
2022-11-04T02:37:31.655Z,2.97
2022-11-04T02:42:41.810Z,2.40
2022-11-04T02:47:48.919Z,2.70
2022-11-04T02:52:58.655Z,2.42
2022-11-04T02:58:05.510Z,1.40
2022-11-04T03:03:13.961Z,2.25
2022-11-04T03:08:19.622Z,1.52
2022-11-04T03:13:29.052Z,1.97
2022-11-04T03:18:42.431Z,1.23
2022-11-04T03:23:44.651Z,0.80
2022-11-04T03:28:55.940Z,0.98
2022-11-04T03:33:59.483Z,1.02
2022-11-04T03:39:01.727Z,1.77
2022-11-04T03:44:04.118Z,1.88
2022-11-04T03:49:08.225Z,1.48
2022-11-04T03:54:10.493Z,1.02
2022-11-04T03:59:31.328Z,2.55
2022-11-04T04:04:38.494Z,3.40
2022-11-04T04:09:43.789Z,1.73
2022-11-04T04:14:51.580Z,0.52
2022-11-04T04:19:58.792Z,1.77
2022-11-04T04:25:03.145Z,1.45
2022-11-04T04:30:08.400Z,2.55
2022-11-04T04:35:12.276Z,1.42
2022-11-04T04:40:23.888Z,3.38
2022-11-04T04:45:33.265Z,1.55
2022-11-04T04:50:40.147Z,2.08
2022-11-04T04:55:42.285Z,3.00
2022-11-04T05:00:44.437Z,1.92
2022-11-04T05:05:47.968Z,0.47
2022-11-04T05:10:50.076Z,1.10
2022-11-04T05:15:52.480Z,1.15
2022-11-04T05:20:56.048Z,1.48
2022-11-04T05:25:58.958Z,1.73
2022-11-04T05:31:03.516Z,1.20
2022-11-04T05:36:12.064Z,0.40
2022-11-04T05:41:14.148Z,1.17
2022-11-04T05:46:16.292Z,1.27
2022-11-04T05:51:22.208Z,1.75
2022-11-04T05:56:30.867Z,0.68
2022-11-04T06:01:35.429Z,1.63
2022-11-04T06:06:38.945Z,1.60
2022-11-04T06:11:41.164Z,1.08
2022-11-04T06:16:43.995Z,0.70
2022-11-04T06:22:06.137Z,1.23
2022-11-04T06:27:09.298Z,2.45
2022-11-04T06:32:13.846Z,3.92
2022-11-04T06:37:17.527Z,2.85
2022-11-04T06:42:19.805Z,1.33
2022-11-04T06:47:24.778Z,2.00
2022-11-04T06:52:28.928Z,2.55
2022-11-04T06:57:31.081Z,1.95
2022-11-04T07:02:33.383Z,1.58
2022-11-04T07:07:40.301Z,2.05
2022-11-04T07:12:45.587Z,2.20
2022-11-04T07:17:47.651Z,4.55
2022-11-04T07:23:03.239Z,1.67
2022-11-04T07:28:08.958Z,5.60
2022-11-04T07:33:11.385Z,2.05
2022-11-04T07:38:14.993Z,2.50
2022-11-04T07:43:17.129Z,1.75
2022-11-04T07:48:19.272Z,3.67
2022-11-04T07:53:23.125Z,2.65
2022-11-04T07:58:25.592Z,2.92
2022-11-04T08:03:27.818Z,2.25
2022-11-04T08:08:32.219Z,1.48
2022-11-04T08:13:36.960Z,1.98
2022-11-04T08:19:06.677Z,2.03
2022-11-04T08:24:10.250Z,9.80
2022-11-04T08:29:12.420Z,3.70
2022-11-04T08:34:14.787Z,3.72
2022-11-04T08:39:18.747Z,2.05
2022-11-04T08:44:21.482Z,0.85
2022-11-04T08:49:23.768Z,1.58
2022-11-04T08:54:27.909Z,2.13
2022-11-04T08:59:30.266Z,1.50
2022-11-04T09:04:32.511Z,2.53
2022-11-04T09:09:36.133Z,3.65
2022-11-04T09:14:38.319Z,3.28
2022-11-04T09:20:09.093Z,1.95
2022-11-04T09:25:12.799Z,1.58
2022-11-04T09:30:15.275Z,1.65
2022-11-04T09:35:17.589Z,1.58
2022-11-04T09:40:24.547Z,1.80
2022-11-04T09:45:29.777Z,0.80
2022-11-04T09:50:37.116Z,3.42
2022-11-04T09:56:10.598Z,2.30
2022-11-04T10:01:24.669Z,0.98
2022-11-04T10:06:35.821Z,4.47
2022-11-04T10:12:06.241Z,1.70
2022-11-04T10:17:25.298Z,2.47
2022-11-04T10:22:32.741Z,4.82
2022-11-04T10:27:39.976Z,3.08
2022-11-04T10:38:27.180Z,1.40
2022-11-04T10:43:34.904Z,2.08
2022-11-04T10:48:54.948Z,2.35
2022-11-04T10:53:59.515Z,1.27
2022-11-04T10:59:22.356Z,2.60
2022-11-04T11:04:28.337Z,3.15
2022-11-04T11:09:32.945Z,2.85
2022-11-04T11:14:38.326Z,5.07
2022-11-04T11:19:50.152Z,3.63
2022-11-04T11:25:12.618Z,12.27
2022-11-04T11:30:28.620Z,3.63
2022-11-04T11:35:35.377Z,5.55
2022-11-04T11:40:52.114Z,2.70
2022-11-04T11:46:05.628Z,3.25
2022-11-04T11:51:08.448Z,3.05
2022-11-04T11:56:18.394Z,1.65
2022-11-04T12:01:28.475Z,2.00
2022-11-04T12:17:42.679Z,5.10
2022-11-04T12:23:17.796Z,2.20
2022-11-04T12:28:29.579Z,2.25
2022-11-04T12:33:40.408Z,3.20
2022-11-04T12:39:10.154Z,3.28
2022-11-04T12:44:23.471Z,2.83
2022-11-04T12:49:49.310Z,3.42
2022-11-04T12:55:26.161Z,4.35
2022-11-04T13:00:32.060Z,2.40
2022-11-04T13:05:42.952Z,3.00
2022-11-04T13:10:58.682Z,5.10
2022-11-04T13:16:16.474Z,2.13
2022-11-04T13:21:24.465Z,6.50
2022-11-04T13:26:27.026Z,4.20
2022-11-04T13:31:38.009Z,3.28
2022-11-04T13:37:10.381Z,5.32
2022-11-04T13:42:40.308Z,4.75
2022-11-04T13:48:13.260Z,2.25
2022-11-04T13:53:19.688Z,4.20
2022-11-04T13:58:25.761Z,4.03
2022-11-04T14:04:05.922Z,7.40
2022-11-04T14:09:35.791Z,2.80
2022-11-04T14:14:39.452Z,4.30
2022-11-04T14:19:58.806Z,4.72
2022-11-04T14:25:23.517Z,6.13
2022-11-04T14:30:46.293Z,4.35
2022-11-04T14:35:49.441Z,5.13
2022-11-04T14:41:23.600Z,4.47
2022-11-04T14:46:29.422Z,5.70
2022-11-04T14:51:34.110Z,8.05
2022-11-04T14:56:37.676Z,4.28
2022-11-04T15:01:40.710Z,4.43
2022-11-04T15:06:58.470Z,2.25
2022-11-04T15:12:11.597Z,3.63
2022-11-04T15:17:23.022Z,6.43
2022-11-04T15:22:25.409Z,4.32
2022-11-04T15:27:30.013Z,4.38
2022-11-04T15:32:32.245Z,8.57
2022-11-04T15:37:36.822Z,4.85
2022-11-04T15:42:42.809Z,4.20
2022-11-04T15:47:45.068Z,5.25
2022-11-04T15:53:04.425Z,6.40
2022-11-04T15:58:15.221Z,4.65
2022-11-04T16:03:20.040Z,2.10
2022-11-04T16:08:27.421Z,7.18
2022-11-04T16:18:37.283Z,6.97
2022-11-04T16:23:46.415Z,4.20
2022-11-04T16:28:54.812Z,7.38
2022-11-04T16:34:03.039Z,7.30
2022-11-04T16:39:07.750Z,5.97
2022-11-04T16:44:19.713Z,4.78
2022-11-04T16:49:22.240Z,8.57
2022-11-04T16:54:24.356Z,5.13
2022-11-04T16:59:27.982Z,5.97
2022-11-04T17:04:30.291Z,4.82
2022-11-04T17:09:32.424Z,7.53
2022-11-04T17:14:36.055Z,5.22
2022-11-04T17:19:38.231Z,5.55
2022-11-04T17:24:40.547Z,4.03
2022-11-04T17:29:44.284Z,8.48
2022-11-04T17:34:46.675Z,5.45
2022-11-04T17:39:48.849Z,5.97
2022-11-04T17:45:20.922Z,9.60
2022-11-04T17:50:23.513Z,7.00
2022-11-04T17:55:27.712Z,8.50
2022-11-04T18:00:31.621Z,6.18
2022-11-04T18:05:33.802Z,8.95
2022-11-04T18:10:36.034Z,7.53
2022-11-04T18:15:39.705Z,9.05
2022-11-04T18:20:42.082Z,8.23
2022-11-04T18:25:49.605Z,7.82
2022-11-04T18:30:57.073Z,5.00
2022-11-04T18:36:03.957Z,10.50
2022-11-04T18:41:06.279Z,8.73
2022-11-04T18:46:18.880Z,10.63
2022-11-04T18:51:22.932Z,8.63
2022-11-04T18:56:25.113Z,8.98
2022-11-04T19:01:31.135Z,8.40
2022-11-04T19:06:35.345Z,9.25
2022-11-04T19:11:40.425Z,6.20
2022-11-04T19:16:43.991Z,14.82
2022-11-04T19:21:46.131Z,10.80
2022-11-04T19:26:48.250Z,10.18
2022-11-04T19:31:52.139Z,11.68
2022-11-04T19:36:54.267Z,6.07
2022-11-04T19:41:56.527Z,7.72
2022-11-04T19:47:00.163Z,10.65
2022-11-04T19:52:02.639Z,7.03
2022-11-04T19:57:04.983Z,8.82
2022-11-04T20:02:10.500Z,8.45
2022-11-04T20:07:13.393Z,9.48
2022-11-04T20:12:15.539Z,8.52
2022-11-04T20:17:19.150Z,9.30
2022-11-04T20:22:21.322Z,9.45
2022-11-04T20:27:23.474Z,9.45
2022-11-04T20:32:26.982Z,6.75
2022-11-04T20:37:29.151Z,7.57
2022-11-04T20:42:31.416Z,8.38
2022-11-04T20:47:35.168Z,12.60
2022-11-04T20:52:40.219Z,9.07
2022-11-04T20:57:42.417Z,9.07
2022-11-04T21:02:46.026Z,6.80
2022-11-04T21:07:48.277Z,7.90
2022-11-04T21:12:52.165Z,11.95
2022-11-04T21:17:58.624Z,4.85
2022-11-04T21:23:01.466Z,9.97
2022-11-04T21:28:03.838Z,13.55
2022-11-04T21:33:07.509Z,14.98
2022-11-04T21:38:13.234Z,10.95
2022-11-04T21:43:15.378Z,9.82
2022-11-04T21:48:18.961Z,9.77
2022-11-04T21:53:24.826Z,11.68
2022-11-04T21:58:29.140Z,13.73
2022-11-04T22:03:37.934Z,11.48
2022-11-04T22:08:44.530Z,15.13
2022-11-04T22:13:50.824Z,9.65
2022-11-04T22:19:04.668Z,13.23
2022-11-04T22:24:12.881Z,8.35
2022-11-04T22:29:15.306Z,13.50
2022-11-04T22:34:18.868Z,11.00
2022-11-04T22:39:21.025Z,8.15
2022-11-04T22:44:23.160Z,11.32
2022-11-04T22:49:26.849Z,9.18
2022-11-04T22:54:29.005Z,9.48
2022-11-04T22:59:31.189Z,10.82
2022-11-04T23:04:34.911Z,7.32
2022-11-04T23:09:37.012Z,7.13
2022-11-04T23:14:39.168Z,4.53
2022-11-04T23:19:42.905Z,11.55
2022-11-04T23:24:45.012Z,13.15
2022-11-04T23:29:47.071Z,10.15
2022-11-04T23:34:50.561Z,10.65
2022-11-04T23:39:52.661Z,6.22
2022-11-04T23:44:56.173Z,9.63
2022-11-04T23:49:59.709Z,5.90
2022-11-04T23:55:01.862Z,7.95
